Flight Track Log - Related Links

Times and Time Zones

All times are in EDT time to prevent confusion due to time zone crossing. See the ASQ4252 flight status page for this flight to view local times or setup timezone preferences in your user account.

Time Position Orientation Groundspeed Altitude Reporting Facility
EDT Latitude Longitude Course Direction KTS MPH feet Rate Location/Type
Sun 06:53:48 PM 38.9333 -77.5167 235° Southwest 203 234 1,800  Level Potomac TRACON
Sun 06:54:53 PM 38.8500 -77.5167 180° South 268 308 4,100 2,256 Climbing Potomac TRACON
Sun 06:55:53 PM 38.7833 -77.5167 180° South 282 325 6,500 2,243 Climbing Potomac TRACON
Sun 06:56:00 PM 38.5622 -77.6700 210° Southwest  Level FlightAware Approximate
Sun 06:56:48 PM 38.7167 -77.5500 201° Southwest 281 323 8,400  Level Potomac TRACON
Sun 06:57:00 PM 38.4884 -77.7508 230° Southwest  Level FlightAware Approximate
Sun 06:58:00 PM 38.4256 -77.8553 234° Southwest  Level FlightAware Approximate
Sun 06:59:00 PM 38.3734 -77.9657 235° Southwest  Level FlightAware Approximate
Sun 06:59:07 PM 38.5636 -77.6839 214° Southwest 309 356 11,900  Level Washington Center
Sun 07:00:08 PM 38.4914 -77.7614 220° Southwest 330 380 13,500 1,721 Climbing Washington Center
Sun 07:01:09 PM 38.4375 -77.8606 235° Southwest 330 380 15,400 1,488 Climbing Washington Center
Sun 07:02:09 PM 38.3875 -77.9597 237° Southwest 335 386 16,500 1,119 Climbing Washington Center
Sun 07:03:07 PM 38.3314 -78.0667 236° Southwest 353 406 17,600 1,169 Climbing Washington Center
Sun 07:04:07 PM 38.2769 -78.1706 236° Southwest 358 412 18,800 1,289 Climbing Washington Center
Sun 07:05:08 PM 38.2247 -78.2719 237° Southwest 358 412 20,200 1,388 Climbing Washington Center
Sun 07:06:08 PM 38.1681 -78.3756 235° Southwest 358 412 21,600 1,190 Climbing Washington Center
Sun 07:07:09 PM 38.1178 -78.4764 238° Southwest 363 418 22,600 1,210 Climbing Washington Center
Sun 07:08:07 PM 38.0775 -78.5883 245° Southwest 351 404 24,000 1,475 Climbing Washington Center
Sun 07:09:07 PM 38.0389 -78.7081 248° West 346 398 25,500 1,190 Climbing Washington Center
Sun 07:10:08 PM 38.0050 -78.8069 247° West 339 390 26,400 1,289 Climbing Washington Center
Sun 07:11:08 PM 37.9644 -78.9236 246° West 334 384 28,100 1,438 Climbing Washington Center
Sun 07:12:09 PM 37.9325 -79.0169 247° West 328 377 29,300 1,311 Climbing Washington Center
Sun 07:13:07 PM 37.8917 -79.1283 245° Southwest 328 377 30,700 1,210 Climbing Washington Center
Sun 07:14:08 PM 37.8450 -79.2236 238° Southwest 318 366 31,700 942 Climbing Washington Center
Sun 07:15:08 PM 37.8028 -79.3081 238° Southwest 318 366 32,600 645 Climbing Washington Center
Sun 07:16:09 PM 37.7494 -79.4158 238° Southwest 323 372 33,000 202 Climbing Washington Center
Sun 07:17:07 PM 37.7047 -79.5081 239° Southwest 339 390 33,000 133 Level Washington Center
Sun 07:19:09 PM 37.5908 -79.7328 237° Southwest 380 437 33,400 300 Climbing Washington Center
Sun 07:20:07 PM 37.5347 -79.8425 237° Southwest 385 443 33,900 502 Climbing Washington Center
Sun 07:23:08 PM 37.3517 -80.2039 238° Southwest 383 441 35,400 498 Climbing Atlanta Center
Sun 07:24:08 PM 37.2925 -80.3136 236° Southwest 383 441 35,900 300 Climbing Atlanta Center
Sun 07:25:08 PM 37.2353 -80.4258 237° Southwest 383 441 36,000 50 Climbing Atlanta Center
Sun 07:26:08 PM 37.1761 -80.5431 238° Southwest 394 453 36,000  Level Atlanta Center
Sun 07:27:08 PM 37.1150 -80.6631 237° Southwest 408 470 36,000  Level Atlanta Center
Sun 07:28:08 PM 37.0556 -80.7775 237° Southwest 408 470 36,000  Level Atlanta Center
Sun 07:29:08 PM 36.9961 -80.8969 238° Southwest 403 464 36,000  Level Atlanta Center
Sun 07:30:08 PM 36.9386 -81.0133 238° Southwest 403 464 36,000  Level Atlanta Center
Sun 07:31:08 PM 36.8767 -81.1300 236° Southwest 403 464 36,000  Level Atlanta Center
Sun 07:32:08 PM 36.8169 -81.2514 238° Southwest 409 471 36,000  Level Atlanta Center
Sun 07:33:08 PM 36.7569 -81.3650 237° Southwest 409 471 36,000  Level Atlanta Center
Sun 07:34:08 PM 36.6969 -81.4833 238° Southwest 397 457 36,000  Level Atlanta Center
Sun 07:35:08 PM 36.6347 -81.6017 237° Southwest 407 468 36,000  Level Atlanta Center
Sun 07:36:08 PM 36.5722 -81.7175 236° Southwest 407 468 36,000  Level Atlanta Center
Sun 07:37:08 PM 36.5181 -81.8222 237° Southwest 407 468 36,000  Level Atlanta Center
Sun 07:38:08 PM 36.4494 -81.9558 237° Southwest 415 478 36,000  Level Atlanta Center
Sun 07:39:08 PM 36.3928 -82.0631 237° Southwest 420 483 36,000  Level Atlanta Center
Sun 07:40:08 PM 36.3300 -82.1781 236° Southwest 420 483 36,000  Level Atlanta Center
Sun 07:41:08 PM 36.2669 -82.3006 237° Southwest 420 483 36,000  Level Atlanta Center
Sun 07:42:08 PM 36.2039 -82.4178 236° Southwest 420 483 36,000  Level Atlanta Center
Sun 07:43:08 PM 36.1408 -82.5347 236° Southwest 420 483 36,000  Level Atlanta Center
Sun 07:44:08 PM 36.0797 -82.6539 238° Southwest 420 483 36,000  Level Atlanta Center
Sun 07:45:08 PM 36.0164 -82.7731 237° Southwest 420 483 36,000  Level Atlanta Center
Sun 07:46:08 PM 35.9508 -82.8922 236° Southwest 420 483 36,000  Level Atlanta Center
Sun 07:47:08 PM 35.8892 -83.0083 237° Southwest 420 483 36,000  Level Atlanta Center
Sun 07:48:08 PM 35.8256 -83.1269 237° Southwest 420 483 36,000  Level Atlanta Center
Sun 07:49:08 PM 35.7636 -83.2453 237° Southwest 415 478 36,000  Level Atlanta Center
Sun 07:50:08 PM 35.6997 -83.3636 236° Southwest 415 478 36,000  Level Atlanta Center
Sun 07:51:08 PM 35.6336 -83.4817 235° Southwest 420 483 36,000  Level Atlanta Center
Sun 07:52:08 PM 35.5694 -83.5997 236° Southwest 420 483 36,000  Level Atlanta Center
Sun 07:53:08 PM 35.5008 -83.7250 236° Southwest 420 483 36,000  Level Atlanta Center
Sun 07:54:08 PM 35.4344 -83.8425 235° Southwest 420 483 36,000  Level Atlanta Center
Sun 07:55:08 PM 35.3697 -83.9625 237° Southwest 420 483 36,000  Level Atlanta Center
Sun 07:56:08 PM 35.3053 -84.0769 235° Southwest 420 483 36,000  Level Atlanta Center
Sun 07:57:08 PM 35.2403 -84.1939 236° Southwest 420 483 36,000  Level Atlanta Center
Sun 07:58:08 PM 35.1733 -84.3106 235° Southwest 420 483 36,000  Level Atlanta Center
Sun 07:59:08 PM 35.1083 -84.4272 236° Southwest 420 483 36,000  Level Atlanta Center
Sun 08:00:08 PM 35.0433 -84.5411 235° Southwest 420 483 36,000  Level Atlanta Center
Sun 08:01:08 PM 34.9511 -84.6317 219° Southwest 420 483 36,000  Level Atlanta Center
Sun 08:02:08 PM 34.8506 -84.7069 212° Southwest 426 490 36,000  Level Atlanta Center
Sun 08:03:08 PM 34.7500 -84.7844 212° Southwest 436 502 36,000  Level Atlanta Center
Sun 08:04:08 PM 34.6514 -84.8644 214° Southwest 441 507 36,000  Level Atlanta Center
Sun 08:05:08 PM 34.5547 -84.9417 213° Southwest 423 487 36,000  Level Atlanta Center
Sun 08:06:08 PM 34.4561 -85.0161 212° Southwest 423 487 36,000  Level Atlanta Center
Sun 08:07:08 PM 34.3553 -85.0956 213° Southwest 423 487 36,000  Level Atlanta Center
Sun 08:08:08 PM 34.2544 -85.1722 212° Southwest 429 494 36,000  Level Atlanta Center
Sun 08:09:08 PM 34.1514 -85.2536 213° Southwest 439 505 36,000  Level Atlanta Center
Sun 08:10:08 PM 34.0506 -85.3350 214° Southwest 439 505 36,000  Level Atlanta Center
Sun 08:11:08 PM 33.9514 -85.4236 217° Southwest 444 511 36,000  Level Atlanta Center
Sun 08:12:08 PM 33.8689 -85.5250 226° Southwest 437 503 36,000  Level Atlanta Center
Sun 08:13:08 PM 33.8108 -85.6489 241° Southwest 426 490 36,000  Level Atlanta Center
Sun 08:14:08 PM 33.7467 -85.7700 238° Southwest 432 497 36,000  Level Atlanta Center
Sun 08:15:08 PM 33.6822 -85.8861 236° Southwest 432 497 36,000  Level Atlanta Center
Sun 08:16:08 PM 33.6178 -86.0044 237° Southwest 432 497 36,000  Level Atlanta Center
Sun 08:17:08 PM 33.5553 -86.1253 238° Southwest 432 497 36,000  Level Atlanta Center
Sun 08:18:08 PM 33.4947 -86.2483 239° Southwest 432 497 36,000  Level Atlanta Center
Sun 08:19:08 PM 33.4444 -86.3739 244° Southwest 424 488 36,000  Level Atlanta Center
Sun 08:20:08 PM 33.3611 -86.4786 226° Southwest 429 494 36,000  Level Atlanta Center
Sun 08:21:08 PM 33.3067 -86.5792 237° Southwest 434 499 36,000  Level Atlanta Center
Sun 08:22:08 PM 33.2372 -86.7161 239° Southwest 450 518 36,000  Level Atlanta Center
Sun 08:23:08 PM 33.1717 -86.8406 238° Southwest 456 525 36,000  Level Atlanta Center
Sun 08:24:08 PM 33.1019 -86.9650 236° Southwest 450 518 36,000  Level Atlanta Center
Sun 08:25:08 PM 33.0322 -87.0839 235° Southwest 444 511 36,000  Level Atlanta Center
Sun 08:26:08 PM 32.9667 -87.2081 238° Southwest 444 511 36,000  Level Atlanta Center
Sun 08:27:08 PM 32.9008 -87.3269 237° Southwest 450 518 36,000  Level Atlanta Center
Sun 08:28:08 PM 32.8350 -87.4481 237° Southwest 450 518 36,000  Level Atlanta Center
Sun 08:30:20 PM 32.6797 -87.7336 237° Southwest 449 517 36,000  Level Memphis Center
Sun 08:31:20 PM 32.6111 -87.8542 236° Southwest 454 522 36,000  Level Memphis Center
Sun 08:32:20 PM 32.5406 -87.9719 235° Southwest 449 517 36,000  Level Memphis Center
Sun 08:33:20 PM 32.4758 -88.0894 237° Southwest 444 511 36,000  Level Memphis Center
Sun 08:34:20 PM 32.4069 -88.2142 237° Southwest 449 517 36,000  Level Memphis Center
Sun 08:35:20 PM 32.3403 -88.3361 237° Southwest 449 517 36,000  Level Memphis Center
Sun 08:36:20 PM 32.2750 -88.4433 234° Southwest 449 517 36,000  Level Memphis Center
Sun 08:37:20 PM 32.2019 -88.5700 236° Southwest 440 506 36,000  Level Memphis Center
Sun 08:38:20 PM 32.1325 -88.6917 236° Southwest 440 506 36,000  Level Memphis Center
Sun 08:39:20 PM 32.0631 -88.8106 235° Southwest 445 512 36,000  Level Memphis Center
Sun 08:40:20 PM 31.9956 -88.9292 236° Southwest 450 518 36,000 -50 Level Memphis Center
Sun 08:41:20 PM 31.9281 -89.0453 236° Southwest 456 525 35,900 -1,053 Descending Memphis Center
Sun 08:42:14 PM 31.8631 -89.1586 236° Southwest 439 505 34,000 -2,172 Descending Houston Center
Sun 08:43:16 PM 31.7911 -89.2789 235° Southwest 449 517 31,700 -2,244 Descending Houston Center
Sun 08:44:17 PM 31.7217 -89.3983 236° Southwest 446 513 29,400 -1,805 Descending Houston Center
Sun 08:45:19 PM 31.6444 -89.5119 231° Southwest 446 513 28,000 -1,113 Descending Houston Center
Sun 08:46:21 PM 31.5306 -89.6003 213° Southwest 444 511 27,100 -1,113 Descending Houston Center
Sun 08:47:23 PM 31.4142 -89.6617 204° Southwest 457 526 25,700 -1,415 Descending Houston Center
Sun 08:48:24 PM 31.2975 -89.7122 200° South 451 519 24,200 -1,463 Descending Houston Center
Sun 08:49:26 PM 31.1844 -89.7642 201° Southwest 441 507 22,700 -1,403 Descending Houston Center
Sun 08:50:28 PM 31.0736 -89.8128 201° Southwest 431 496 21,300 -1,317 Descending Houston Center
Sun 08:51:29 PM 30.9683 -89.8722 206° Southwest 425 489 20,000 -1,366 Descending Houston Center
Sun 08:52:31 PM 30.8742 -89.9433 213° Southwest 408 470 18,500 -1,780 Descending Houston Center
Sun 08:53:00 PM 30.8081 -89.9953 214° Southwest 402 463 17,300 -2,516 Descending Houston Center
Sun 08:53:33 PM 30.7703 -90.0311 219° Southwest 390 449 15,900 -2,176 Descending Houston Center
Sun 08:54:31 PM 30.6833 -90.0850 208° Southwest 357 411 14,000 -1,966 Descending Houston Center
Sun 08:55:32 PM 30.5900 -90.1083 192° South 340 391 12,000 -1,884 Descending Houston Center
Sun 08:56:32 PM 30.4944 -90.1269 190° South 320 368 10,200 -1,835 Descending Houston Center
Sun 08:57:33 PM 30.4136 -90.1422 189° South 286 329 8,300 -1,721 Descending Houston Center
Sun 08:58:34 PM 30.3367 -90.1575 190° South 283 326 6,700 -1,488 Descending Houston Center
Sun 08:59:34 PM 30.2619 -90.1725 190° South 273 314 5,300 -1,388 Descending Houston Center
Sun 09:00:35 PM 30.1872 -90.1878 190° South 272 313 3,900 -1,426 Descending Houston Center
Sun 09:01:36 PM 30.1147 -90.2100 195° South 266 306 2,400 -1,475 Descending Houston Center

Login

Don't have an account? Register now (free) for customized features, flight alerts, and more!